Time;durP1;ratioP1;P1;durP2;ratioP2;P2;SDS_P1;SDS_P2;PMS_P1;PMS_P2;Temp;Humidity;BMP_temperature;BMP_pressure;BME280_temperature;BME280_humidity;BME280_pressure;Samples;Min_cycle;Max_cycle;Signal;HPM_P1;HPM_P2
2022/06/22 00:01:34;;;;;;;3.05;2.30;;;;;;;27.86;36.52;96684.72;5097543;28;20020;-37
2022/06/22 00:04:02;;;;;;;3.22;2.50;;;;;;;27.91;36.12;96678.31;5097264;28;20050;-38
2022/06/22 00:06:35;;;;;;;2.55;2.20;;;;;;;28.00;35.93;96674.31;5097170;28;20031;-38
2022/06/22 00:09:03;;;;;;;2.85;2.15;;;;;;;27.93;36.11;96675.75;5095841;28;20028;-37
2022/06/22 00:11:29;;;;;;;2.58;2.38;;;;;;;27.99;35.58;96679.16;5095791;28;20031;-36
2022/06/22 00:13:58;;;;;;;2.30;2.10;;;;;;;28.01;35.29;96670.25;5097098;28;20372;-37
2022/06/22 00:16:31;;;;;;;3.67;2.10;;;;;;;27.93;35.40;96672.94;5096860;28;20020;-36
2022/06/22 00:18:57;;;;;;;2.47;2.25;;;;;;;27.87;36.01;96680.66;5096986;28;20073;-36
2022/06/22 00:21:36;;;;;;;2.65;2.15;;;;;;;27.95;35.31;96672.38;5097259;28;20176;-37
2022/06/22 00:24:24;;;;;;;3.83;2.30;;;;;;;27.96;34.75;96673.88;5096954;28;20472;-38
2022/06/22 00:26:56;;;;;;;2.50;2.30;;;;;;;27.94;34.97;96666.09;5095960;28;20024;-36
2022/06/22 00:29:24;;;;;;;4.07;2.40;;;;;;;27.90;35.38;96671.22;5096842;28;20024;-37
2022/06/22 00:31:50;;;;;;;2.30;2.10;;;;;;;27.89;35.64;96664.91;5096673;28;20128;-37
2022/06/22 00:34:33;;;;;;;2.40;2.20;;;;;;;27.92;34.95;96676.28;5096695;28;20047;-37
2022/06/22 00:37:03;;;;;;;3.55;2.38;;;;;;;27.94;35.47;96668.88;5096448;28;20016;-37
2022/06/22 00:39:28;;;;;;;2.65;2.45;;;;;;;27.99;34.86;96664.47;5096449;28;20035;-38
2022/06/22 00:42:15;;;;;;;2.45;1.90;;;;;;;27.87;35.43;96666.72;5095274;28;20371;-37
2022/06/22 00:44:52;;;;;;;2.08;1.90;;;;;;;27.92;35.09;96668.66;5096429;28;20046;-37
2022/06/22 00:47:28;;;;;;;3.50;2.20;;;;;;;27.85;34.95;96663.72;5096550;28;20357;-37
2022/06/22 00:49:59;;;;;;;2.42;2.22;;;;;;;27.92;35.20;96654.72;5096127;28;20020;-37
2022/06/22 00:52:34;;;;;;;3.67;2.05;;;;;;;27.86;35.33;96660.41;5096378;28;20034;-37
2022/06/22 00:55:00;;;;;;;2.53;2.17;;;;;;;27.88;35.01;96657.81;5096649;28;20020;-37
2022/06/22 00:57:33;;;;;;;2.47;2.25;;;;;;;27.89;35.00;96653.00;5096202;28;20097;-38
2022/06/22 01:00:13;;;;;;;3.38;2.50;;;;;;;27.93;35.09;96642.28;5096091;28;20104;-37
2022/06/22 01:02:47;;;;;;;3.40;2.17;;;;;;;27.94;34.60;96643.78;5094875;28;20016;-37
2022/06/22 01:05:21;;;;;;;4.35;2.20;;;;;;;27.92;34.96;96640.03;5096031;28;20034;-37
2022/06/22 01:08:00;;;;;;;3.20;2.42;;;;;;;27.91;34.81;96639.28;5096137;28;20024;-37
2022/06/22 01:10:42;;;;;;;3.65;2.30;;;;;;;27.99;35.00;96634.53;5095917;28;20094;-37
2022/06/22 01:13:13;;;;;;;3.67;2.40;;;;;;;27.96;34.78;96634.88;5095925;28;20050;-37
2022/06/22 01:15:45;;;;;;;2.60;2.40;;;;;;;27.95;34.79;96630.56;5096168;28;20020;-37
2022/06/22 01:18:10;;;;;;;4.30;2.10;;;;;;;27.95;34.54;96631.31;5096075;28;20051;-37
2022/06/22 01:20:51;;;;;;;3.28;2.17;;;;;;;27.90;34.71;96626.63;5095685;28;20449;-38
2022/06/22 01:23:16;;;;;;;2.33;2.10;;;;;;;27.95;34.50;96617.38;5094416;28;20023;-37
2022/06/22 01:26:19;;;;;;;3.78;2.30;;;;;;;27.93;34.85;96620.00;5095456;28;20036;-38
2022/06/22 01:28:58;;;;;;;3.50;2.10;;;;;;;27.92;34.97;96618.50;5095884;28;20024;-38
2022/06/22 01:31:24;;;;;;;2.72;2.40;;;;;;;27.92;34.95;96618.50;5095687;28;20023;-38
2022/06/22 01:33:52;;;;;;;2.40;2.15;;;;;;;27.90;34.75;96618.28;5095332;28;20031;-37
2022/06/22 01:36:24;;;;;;;2.97;2.55;;;;;;;27.82;34.27;96620.19;5095592;28;20020;-38
2022/06/22 01:38:51;;;;;;;3.05;2.30;;;;;;;27.88;34.89;96618.06;5095483;28;20019;-37
2022/06/22 01:41:40;;;;;;;3.03;2.63;;;;;;;27.87;34.58;96620.09;5095546;28;20028;-36
2022/06/22 01:44:24;;;;;;;3.33;2.40;;;;;;;27.86;34.19;96610.22;5094203;28;20032;-36
2022/06/22 01:46:52;;;;;;;4.05;2.70;;;;;;;27.88;34.24;96618.06;5095317;28;20024;-37
2022/06/22 01:50:09;;;;;;;2.85;2.38;;;;;;;27.86;34.27;96621.38;5095207;28;20111;-39
2022/06/22 01:53:18;;;;;;;2.45;2.05;;;;;;;27.82;34.37;96626.50;5051987;28;20025;-37
2022/06/22 01:55:54;;;;;;;2.80;2.30;;;;;;;27.84;34.07;96626.72;5050647;28;20531;-39
2022/06/22 01:58:19;;;;;;;2.67;2.30;;;;;;;27.82;34.46;96620.94;5071413;28;20144;-37
2022/06/22 02:00:50;;;;;;;3.17;2.45;;;;;;;27.83;34.24;96622.44;5072941;28;20115;-37
2022/06/22 02:03:22;;;;;;;3.17;2.42;;;;;;;27.79;34.23;96621.28;5072066;28;20362;-37
2022/06/22 02:06:02;;;;;;;3.72;2.90;;;;;;;27.81;34.30;96618.72;5072566;28;20043;-37
2022/06/22 02:08:37;;;;;;;3.40;2.55;;;;;;;27.83;33.95;96610.53;5072616;28;20479;-37
2022/06/22 02:11:08;;;;;;;3.05;2.40;;;;;;;27.81;34.02;96613.16;5072635;28;20035;-36
2022/06/22 02:14:16;;;;;;;4.00;2.53;;;;;;;27.82;34.42;96615.38;5072510;28;20109;-37
2022/06/22 02:16:53;;;;;;;2.58;2.25;;;;;;;27.81;34.22;96602.00;5012540;28;20038;-37
2022/06/22 02:19:21;;;;;;;3.08;2.33;;;;;;;27.85;34.12;96607.97;5012960;28;20486;-38
2022/06/22 02:21:49;;;;;;;2.45;2.25;;;;;;;27.80;34.11;96612.41;5012437;28;20498;-37
2022/06/22 02:24:33;;;;;;;2.78;2.30;;;;;;;27.79;34.24;96616.47;5012722;28;20525;-38
2022/06/22 02:27:23;;;;;;;3.13;2.55;;;;;;;27.76;34.79;96614.00;4997625;28;20498;-36
2022/06/22 02:29:58;;;;;;;4.18;2.80;;;;;;;27.81;34.81;96602.00;4992816;28;20030;-37
2022/06/22 02:32:30;;;;;;;3.13;2.50;;;;;;;27.72;34.56;96596.84;4993030;28;20407;-37
2022/06/22 02:34:58;;;;;;;4.07;2.75;;;;;;;27.72;34.76;96588.47;4992922;28;20034;-37
2022/06/22 02:37:28;;;;;;;2.75;2.40;;;;;;;27.74;34.90;96586.66;4992665;28;20383;-37
2022/06/22 02:39:58;;;;;;;3.50;2.75;;;;;;;27.70;34.99;96588.28;4992742;28;20035;-37
2022/06/22 02:45:12;;;;;;;5.10;2.60;;;;;;;27.75;34.69;96593.00;4992800;28;20081;-37
2022/06/22 02:47:56;;;;;;;3.08;2.80;;;;;;;27.74;34.53;96592.25;4992824;28;20034;-37
2022/06/22 02:50:43;;;;;;;3.00;2.70;;;;;;;27.75;34.99;96588.16;5034955;28;20032;-36
2022/06/22 02:53:16;;;;;;;3.22;2.80;;;;;;;27.71;35.14;96590.53;5094301;28;20436;-37
2022/06/22 02:55:42;;;;;;;2.67;2.47;;;;;;;27.72;34.72;96597.59;5093922;28;20384;-37
2022/06/22 02:58:30;;;;;;;2.72;2.53;;;;;;;27.73;34.60;96598.34;5093820;28;20047;-36
2022/06/22 03:01:00;;;;;;;3.72;2.63;;;;;;;27.72;34.46;96594.06;5093839;28;20028;-37
2022/06/22 03:03:28;;;;;;;3.47;2.80;;;;;;;27.70;34.36;96599.41;5094118;28;20016;-37
2022/06/22 03:05:56;;;;;;;2.97;2.60;;;;;;;27.73;34.64;96603.91;5093720;28;20024;-38
2022/06/22 03:08:23;;;;;;;3.53;2.58;;;;;;;27.71;34.62;96609.28;5093695;28;20392;-38
2022/06/22 03:11:00;;;;;;;3.25;2.53;;;;;;;27.65;34.87;96612.19;5094128;28;20028;-37
2022/06/22 03:13:36;;;;;;;2.67;2.42;;;;;;;27.66;35.03;96618.50;5093195;28;20028;-37
2022/06/22 03:16:03;;;;;;;4.10;2.30;;;;;;;27.72;34.46;96616.34;5093974;28;20028;-38
2022/06/22 03:18:34;;;;;;;3.58;2.33;;;;;;;27.67;34.60;96617.22;5093772;28;20055;-36
2022/06/22 03:21:04;;;;;;;3.28;2.58;;;;;;;27.68;34.37;96615.94;5093738;28;20095;-38
2022/06/22 03:23:48;;;;;;;3.83;2.88;;;;;;;27.65;34.73;96614.97;5094081;28;20017;-37
2022/06/22 03:26:33;;;;;;;4.00;2.70;;;;;;;27.67;34.41;96617.22;5093526;28;20027;-36
2022/06/22 03:29:07;;;;;;;2.90;2.47;;;;;;;27.64;35.02;96615.50;5093731;28;20441;-37
2022/06/22 03:32:01;;;;;;;2.97;2.60;;;;;;;27.64;34.65;96605.13;5093515;28;20464;-37
2022/06/22 03:34:33;;;;;;;2.85;2.60;;;;;;;27.56;34.72;96609.09;5093706;28;20030;-36
2022/06/22 03:37:06;;;;;;;4.10;2.60;;;;;;;27.62;34.70;96612.50;5093441;28;20020;-37
2022/06/22 03:39:37;;;;;;;2.83;2.45;;;;;;;27.62;34.73;96604.13;5093758;28;20024;-37
2022/06/22 03:42:10;;;;;;;3.58;3.28;;;;;;;27.65;34.50;96605.88;5093300;28;20032;-37
2022/06/22 03:44:54;;;;;;;2.55;2.35;;;;;;;27.59;34.03;96602.41;5093469;28;20020;-36
2022/06/22 03:47:30;;;;;;;4.30;2.47;;;;;;;27.61;34.38;96599.84;5093573;28;20468;-37
2022/06/22 03:49:56;;;;;;;3.45;2.60;;;;;;;27.62;34.17;96602.09;5093391;28;20031;-37
2022/06/22 03:52:49;;;;;;;2.90;2.28;;;;;;;27.61;34.38;96608.22;5093388;28;20027;-37
2022/06/22 03:55:20;;;;;;;2.72;2.30;;;;;;;27.54;34.38;96613.13;5093358;28;20376;-40
2022/06/22 03:57:51;;;;;;;3.65;2.58;;;;;;;27.60;34.03;96620.63;5093328;28;20044;-36
2022/06/22 04:00:18;;;;;;;3.25;2.72;;;;;;;27.62;33.53;96624.41;5093202;28;20464;-37
2022/06/22 04:02:44;;;;;;;2.90;2.30;;;;;;;27.59;33.58;96630.28;5093170;28;20042;-37
2022/06/22 04:05:19;;;;;;;3.38;2.72;;;;;;;27.59;33.60;96642.19;5093237;28;20028;-36
2022/06/22 04:07:46;;;;;;;5.07;2.90;;;;;;;27.58;33.19;96640.69;5093472;28;20127;-37
2022/06/22 04:10:25;;;;;;;4.63;2.53;;;;;;;27.60;33.46;96637.34;5093245;28;20412;-37
2022/06/22 04:12:53;;;;;;;5.00;2.88;;;;;;;27.53;33.51;96639.47;5093142;28;20032;-36
2022/06/22 04:15:51;;;;;;;2.92;2.40;;;;;;;27.53;33.50;96622.00;5093110;28;20028;-38
2022/06/22 04:18:23;;;;;;;2.63;2.22;;;;;;;27.48;33.89;96631.97;5093049;28;20110;-36
2022/06/22 04:20:57;;;;;;;4.43;2.97;;;;;;;27.46;33.91;96633.78;5093031;28;20439;-38
2022/06/22 04:23:38;;;;;;;3.38;2.63;;;;;;;27.50;33.65;96626.63;5093006;28;20086;-36
2022/06/22 04:26:34;;;;;;;2.85;2.65;;;;;;;27.49;33.09;96616.00;5094560;28;20028;-36
2022/06/22 04:29:07;;;;;;;3.92;2.60;;;;;;;27.47;33.45;96619.31;5096910;28;20602;-38
2022/06/22 04:31:36;;;;;;;4.63;2.80;;;;;;;27.47;32.79;96624.91;5097004;28;20039;-38
2022/06/22 04:34:18;;;;;;;3.40;2.80;;;;;;;27.49;33.43;96625.13;5095463;28;20178;-36
2022/06/22 04:36:50;;;;;;;5.20;2.63;;;;;;;27.44;33.01;96633.59;5096874;28;20024;-37
2022/06/22 04:39:27;;;;;;;5.13;3.23;;;;;;;27.49;33.15;96616.75;5096645;28;20192;-38
2022/06/22 04:41:53;;;;;;;2.95;2.67;;;;;;;27.42;33.15;96611.84;5096676;28;20044;-37
2022/06/22 04:44:22;;;;;;;4.35;2.83;;;;;;;27.42;33.48;96617.41;5095551;28;20110;-37
2022/06/22 04:46:52;;;;;;;3.47;2.90;;;;;;;27.42;33.42;96628.56;5096373;28;20027;-37
2022/06/22 04:49:35;;;;;;;3.08;2.80;;;;;;;27.43;33.17;96638.41;5096466;28;20024;-37
2022/06/22 04:52:08;;;;;;;4.68;3.03;;;;;;;27.43;33.65;96646.00;5094984;28;20070;-37
2022/06/22 04:54:40;;;;;;;5.20;2.75;;;;;;;27.42;33.62;96650.09;5094695;28;20395;-37
2022/06/22 04:57:18;;;;;;;3.83;3.10;;;;;;;27.44;33.92;96642.69;5094286;28;20052;-37
2022/06/22 04:59:47;;;;;;;4.72;2.70;;;;;;;27.44;33.94;96647.50;5094550;28;20284;-37
2022/06/22 05:02:15;;;;;;;5.05;2.92;;;;;;;27.40;33.67;96647.81;5094183;28;20028;-37
2022/06/22 05:04:51;;;;;;;5.65;3.05;;;;;;;27.45;33.37;96649.00;5103552;27;20063;-36
2022/06/22 05:07:38;;;;;;;4.63;2.97;;;;;;;27.45;33.61;96649.75;5132167;27;20542;-37
2022/06/22 05:10:29;;;;;;;8.77;3.50;;;;;;;27.41;34.10;96646.53;5135189;27;20027;-37
2022/06/22 05:12:55;;;;;;;4.97;3.20;;;;;;;27.47;33.93;96654.78;5135324;27;20114;-37
2022/06/22 05:15:27;;;;;;;4.47;3.33;;;;;;;27.45;33.95;96651.78;5135381;27;20106;-38
2022/06/22 05:17:54;;;;;;;4.95;3.40;;;;;;;27.44;34.01;96655.88;5134955;27;20029;-36
2022/06/22 05:20:38;;;;;;;7.43;3.00;;;;;;;27.47;34.04;96649.97;5135066;27;20024;-37
2022/06/22 05:23:06;;;;;;;4.45;3.45;;;;;;;27.46;34.00;96651.25;5135063;27;20146;-37
2022/06/22 05:25:32;;;;;;;5.47;3.30;;;;;;;27.44;34.39;96647.50;5134727;27;20039;-37
2022/06/22 05:28:22;;;;;;;4.05;3.33;;;;;;;27.46;34.44;96637.31;5134876;27;20076;-37
2022/06/22 05:31:00;;;;;;;5.13;3.88;;;;;;;27.45;34.61;96635.81;5134988;27;20031;-37
2022/06/22 05:33:26;;;;;;;4.35;3.40;;;;;;;27.41;34.54;96632.63;5134709;27;20379;-38
2022/06/22 05:36:02;;;;;;;4.55;3.83;;;;;;;27.40;34.51;96638.72;5133262;27;20023;-38
2022/06/22 05:38:29;;;;;;;4.68;3.50;;;;;;;27.39;34.72;96640.75;5134174;27;20027;-36
2022/06/22 05:40:56;;;;;;;3.95;3.25;;;;;;;27.42;34.37;96638.94;5130863;27;20026;-37
2022/06/22 05:43:23;;;;;;;3.50;3.20;;;;;;;27.41;34.44;96637.44;5113990;28;20027;-37
2022/06/22 05:45:57;;;;;;;4.82;3.55;;;;;;;27.44;34.52;96637.13;5113868;28;20096;-36
2022/06/22 05:48:26;;;;;;;5.63;3.60;;;;;;;27.32;34.78;96641.41;5113806;28;20084;-37
2022/06/22 05:51:09;;;;;;;5.32;3.88;;;;;;;27.37;34.54;96646.09;5113938;28;20383;-38
2022/06/22 05:53:44;;;;;;;6.35;3.60;;;;;;;27.43;34.52;96646.75;5113574;28;20028;-37
2022/06/22 05:56:29;;;;;;;4.45;3.47;;;;;;;27.39;34.85;96657.47;5112317;28;20034;-37
2022/06/22 05:59:28;;;;;;;4.32;3.40;;;;;;;27.34;35.04;96661.09;5112339;28;20020;-37
2022/06/22 06:02:15;;;;;;;5.93;3.67;;;;;;;27.35;34.65;96651.44;5113620;28;20035;-38
2022/06/22 06:04:50;;;;;;;7.68;3.67;;;;;;;27.38;34.53;96658.75;5113453;28;20482;-38
2022/06/22 06:07:24;;;;;;;5.35;3.40;;;;;;;27.33;34.67;96654.00;5112020;28;20106;-38
2022/06/22 06:09:51;;;;;;;5.40;3.50;;;;;;;27.37;34.45;96657.25;5113571;28;20034;-37
2022/06/22 06:12:27;;;;;;;5.55;3.80;;;;;;;27.39;34.28;96656.72;5113526;28;20431;-37
2022/06/22 06:14:54;;;;;;;4.00;3.63;;;;;;;27.37;34.86;96660.03;5113415;28;20675;-37
2022/06/22 06:17:28;;;;;;;5.60;3.60;;;;;;;27.33;34.89;96656.78;5113212;28;20428;-38
2022/06/22 06:19:57;;;;;;;5.22;3.28;;;;;;;27.35;34.84;96662.59;5113234;28;20027;-37
2022/06/22 06:22:24;;;;;;;6.63;3.53;;;;;;;27.34;34.91;96668.69;5113403;28;20035;-38
2022/06/22 06:27:45;;;;;;;4.38;3.47;;;;;;;27.36;34.52;96658.53;5113190;28;20034;-36
2022/06/22 06:30:18;;;;;;;4.78;3.50;;;;;;;27.38;34.72;96661.53;5112779;28;20020;-37
2022/06/22 06:33:00;;;;;;;8.18;3.80;;;;;;;27.39;34.63;96674.19;5113076;28;20019;-37
2022/06/22 06:35:40;;;;;;;5.97;3.60;;;;;;;27.39;34.12;96663.03;5112902;28;20030;-37
2022/06/22 06:38:23;;;;;;;6.35;3.20;;;;;;;27.32;34.59;96671.28;5112899;28;20251;-37
2022/06/22 06:41:01;;;;;;;4.72;3.40;;;;;;;27.17;33.79;96664.19;5112674;28;20507;-38
2022/06/22 06:43:32;;;;;;;5.20;3.58;;;;;;;27.17;34.18;96669.00;5113013;28;20023;-37
2022/06/22 06:46:01;;;;;;;4.15;3.55;;;;;;;27.31;33.44;96670.53;5112939;28;20103;-38
2022/06/22 06:48:31;;;;;;;4.97;3.60;;;;;;;27.29;33.71;96673.09;5112698;28;20072;-38
2022/06/22 06:51:01;;;;;;;8.30;3.72;;;;;;;27.33;33.86;96670.72;5112790;28;20387;-38
2022/06/22 06:53:42;;;;;;;4.63;3.50;;;;;;;27.32;33.39;96660.13;5112712;28;20463;-37
2022/06/22 06:56:28;;;;;;;5.25;3.75;;;;;;;27.11;33.89;96660.72;5112532;28;20054;-36
2022/06/22 06:59:17;;;;;;;3.70;3.10;;;;;;;27.31;33.75;96667.75;5112723;28;20024;-38
2022/06/22 07:01:45;;;;;;;7.43;3.50;;;;;;;27.32;33.75;96677.59;5112516;28;20484;-37
2022/06/22 07:04:17;;;;;;;6.35;3.80;;;;;;;27.30;34.08;96671.06;5111065;28;20031;-37
2022/06/22 07:06:44;;;;;;;5.45;3.47;;;;;;;27.33;34.14;96686.69;5110979;28;20027;-37
2022/06/22 07:09:31;;;;;;;4.55;3.50;;;;;;;27.31;34.31;96698.38;5108852;28;20035;-38
2022/06/22 07:12:20;;;;;;;4.47;3.35;;;;;;;27.33;34.16;96698.56;5092131;28;20043;-38
2022/06/22 07:14:46;;;;;;;4.88;3.38;;;;;;;27.36;34.15;96699.53;5092049;28;20108;-38
2022/06/22 07:17:15;;;;;;;4.55;3.35;;;;;;;27.34;34.10;96704.88;5091509;28;20115;-38
2022/06/22 07:19:51;;;;;;;3.65;3.17;;;;;;;26.65;34.96;96714.03;5091327;28;20107;-33
2022/06/22 07:22:32;;;;;;;6.53;3.20;;;;;;;26.87;34.03;96719.28;5091960;28;20024;-34
2022/06/22 07:25:30;;;;;;;4.00;3.17;;;;;;;27.18;33.48;96709.47;5091587;28;20020;-34
2022/06/22 07:28:04;;;;;;;5.05;3.45;;;;;;;27.14;33.38;96704.22;5089576;28;20131;-34
2022/06/22 07:30:48;;;;;;;4.35;3.35;;;;;;;27.11;33.54;96687.81;5106893;28;20537;-34
2022/06/22 07:33:26;;;;;;;4.45;3.60;;;;;;;27.16;33.30;96689.75;5112250;28;20028;-34
2022/06/22 07:35:52;;;;;;;4.20;3.50;;;;;;;27.04;33.21;96694.75;5112366;28;20031;-34
2022/06/22 07:38:26;;;;;;;4.70;3.35;;;;;;;27.17;33.13;96702.41;5112023;28;20107;-34
2022/06/22 07:43:41;;;;;;;3.80;3.33;;;;;;;27.20;33.27;96711.75;5132623;28;20084;-34
2022/06/22 07:46:13;;;;;;;4.80;3.28;;;;;;;27.21;33.13;96697.25;5132496;27;20027;-35
2022/06/22 07:48:46;;;;;;;5.30;3.35;;;;;;;27.24;33.49;96685.06;5132429;27;20031;-34
2022/06/22 07:51:22;;;;;;;4.93;3.38;;;;;;;27.12;33.56;96672.63;5132425;27;20098;-34
2022/06/22 07:54:14;;;;;;;4.95;3.72;;;;;;;26.93;33.55;96677.50;5132103;27;20031;-34
2022/06/22 07:56:55;;;;;;;5.00;3.35;;;;;;;26.99;33.25;96676.09;5132356;27;20061;-34
2022/06/22 07:59:29;;;;;;;6.22;3.15;;;;;;;26.97;33.76;96689.03;5132468;27;20035;-34
2022/06/22 08:02:00;;;;;;;5.93;3.63;;;;;;;27.12;33.50;96690.06;5136571;27;20039;-34
2022/06/22 08:04:34;;;;;;;4.10;3.70;;;;;;;27.11;33.82;96696.16;5136323;27;20027;-34
2022/06/22 08:07:14;;;;;;;6.72;3.17;;;;;;;27.11;33.99;96699.69;5134766;27;20117;-34
2022/06/22 08:09:49;;;;;;;4.70;3.42;;;;;;;27.14;33.47;96711.81;5136375;27;20023;-34
2022/06/22 08:12:25;;;;;;;5.25;4.13;;;;;;;27.05;33.29;96699.06;5136337;27;20034;-34
2022/06/22 08:14:53;;;;;;;6.13;4.07;;;;;;;27.05;33.27;96701.09;5136223;27;20030;-34
2022/06/22 08:17:44;;;;;;;5.32;4.28;;;;;;;27.04;33.47;96707.94;5123795;27;20476;-34
2022/06/22 08:20:14;;;;;;;9.30;5.72;;;;;;;26.80;33.52;96701.19;5117174;28;20043;-34
2022/06/22 08:22:45;;;;;;;10.93;6.88;;;;;;;26.82;33.16;96690.28;5117822;28;20016;-34
2022/06/22 08:25:14;;;;;;;5.93;5.38;;;;;;;27.11;33.12;96719.19;5117206;28;20076;-34
2022/06/22 08:27:40;;;;;;;6.53;5.30;;;;;;;27.12;33.46;96731.81;5117355;28;20030;-34
2022/06/22 08:30:09;;;;;;;5.82;4.55;;;;;;;27.15;33.57;96732.81;5115995;28;20015;-34
2022/06/22 08:32:42;;;;;;;5.47;4.68;;;;;;;27.18;33.23;96721.38;5117239;28;20046;-34
2022/06/22 08:35:24;;;;;;;5.75;4.90;;;;;;;27.09;33.26;96729.34;5117475;28;20023;-34
2022/06/22 08:37:57;;;;;;;6.10;5.43;;;;;;;26.90;33.41;96723.03;5117112;28;20019;-35
2022/06/22 08:40:28;;;;;;;6.07;5.55;;;;;;;26.88;33.67;96714.47;5116852;28;20020;-34
2022/06/22 08:43:03;;;;;;;6.00;5.38;;;;;;;26.93;33.54;96711.63;5116773;28;20019;-35
2022/06/22 08:45:50;;;;;;;8.15;5.40;;;;;;;27.13;33.72;96708.28;5116918;28;20031;-34
2022/06/22 08:48:41;;;;;;;6.63;5.40;;;;;;;27.06;33.71;96710.94;5116636;28;20529;-34
2022/06/22 08:51:22;;;;;;;7.32;5.50;;;;;;;26.97;33.72;96694.63;5116930;28;20513;-35
2022/06/22 08:54:00;;;;;;;6.10;5.00;;;;;;;27.07;33.97;96696.50;5116742;28;20027;-34
2022/06/22 08:56:54;;;;;;;6.30;5.03;;;;;;;27.03;33.31;96706.44;5117052;28;20047;-35
2022/06/22 08:59:26;;;;;;;7.45;5.78;;;;;;;27.00;33.89;96711.00;5116739;27;20031;-34
2022/06/22 09:02:11;;;;;;;7.07;5.00;;;;;;;27.14;33.60;96720.16;5116562;28;20072;-34
2022/06/22 09:04:51;;;;;;;7.30;5.68;;;;;;;27.12;33.53;96714.38;5116717;28;20425;-34
2022/06/22 09:07:28;;;;;;;5.78;5.28;;;;;;;27.14;34.04;96715.34;5116808;28;20042;-34
2022/06/22 09:10:04;;;;;;;6.35;5.70;;;;;;;27.02;33.65;96721.63;5116557;28;20023;-34
2022/06/22 09:12:48;;;;;;;7.20;5.97;;;;;;;27.07;33.56;96713.19;5113932;28;20023;-35
2022/06/22 09:15:33;;;;;;;11.32;5.82;;;;;;;27.04;33.10;96703.13;5116309;28;20028;-34
2022/06/22 09:18:17;;;;;;;7.05;5.35;;;;;;;27.09;33.88;96702.25;5116364;28;20072;-34
2022/06/22 09:21:05;;;;;;;6.43;5.30;;;;;;;27.17;34.01;96682.91;5116120;28;20102;-34
2022/06/22 09:23:43;;;;;;;6.10;5.50;;;;;;;27.21;33.48;96686.13;5114906;28;20027;-34
2022/06/22 09:26:49;;;;;;;6.20;5.13;;;;;;;27.12;33.95;96690.06;5116396;28;20429;-34
2022/06/22 09:29:38;;;;;;;8.88;5.50;;;;;;;27.20;33.73;96695.75;5116097;28;20022;-34
2022/06/22 09:32:20;;;;;;;6.60;5.50;;;;;;;27.20;33.72;96686.69;5116079;28;20027;-35
2022/06/22 09:35:26;;;;;;;7.45;5.72;;;;;;;27.05;34.12;96692.72;5116055;28;20467;-34
2022/06/22 09:38:09;;;;;;;5.50;5.00;;;;;;;26.94;33.32;96702.00;5115951;28;20031;-34
2022/06/22 09:41:04;;;;;;;6.00;5.40;;;;;;;27.00;34.01;96704.69;5115827;28;20032;-34
2022/06/22 09:43:49;;;;;;;7.38;5.75;;;;;;;27.05;33.37;96701.09;5111627;28;20039;-35
2022/06/22 09:46:47;;;;;;;5.82;5.32;;;;;;;27.13;33.37;96699.94;5115661;28;20038;-34
2022/06/22 09:49:43;;;;;;;8.50;5.82;;;;;;;27.22;33.63;96698.75;5108133;28;20044;-34
2022/06/22 09:52:23;;;;;;;6.22;5.53;;;;;;;27.04;33.69;96694.75;5115526;27;20480;-34
2022/06/22 09:58:36;;;;;;;6.63;5.53;;;;;;;27.11;33.61;96694.13;5115415;28;20498;-34
2022/06/22 10:01:38;;;;;;;7.75;5.32;;;;;;;27.03;33.93;96692.50;5115481;28;20106;-34
2022/06/22 10:04:29;;;;;;;9.60;6.20;;;;;;;27.13;33.37;96697.13;5108787;28;20547;-34
2022/06/22 10:07:07;;;;;;;5.88;5.30;;;;;;;27.20;33.81;96703.38;5093189;28;20031;-34
2022/06/22 10:09:54;;;;;;;6.38;5.50;;;;;;;27.15;33.79;96704.97;5093149;28;20460;-34
2022/06/22 10:12:49;;;;;;;6.38;5.78;;;;;;;27.22;33.75;96682.06;5092955;28;20028;-34
2022/06/22 10:15:37;;;;;;;7.28;6.07;;;;;;;27.10;34.11;96672.38;5092805;28;20028;-34
2022/06/22 10:18:12;;;;;;;5.97;5.43;;;;;;;27.21;33.37;96672.19;5072983;28;20054;-34
2022/06/22 10:21:06;;;;;;;5.90;5.40;;;;;;;27.17;33.82;96674.56;5092929;28;20020;-34
2022/06/22 10:23:57;;;;;;;6.50;5.60;;;;;;;27.19;33.41;96672.00;5092348;28;20495;-34
2022/06/22 10:26:52;;;;;;;6.22;5.38;;;;;;;27.14;33.50;96687.50;5092619;28;20028;-34
2022/06/22 10:29:39;;;;;;;6.35;5.18;;;;;;;27.08;33.36;96674.94;5092905;28;20483;-34
2022/06/22 10:32:24;;;;;;;5.80;5.22;;;;;;;27.04;33.71;96677.31;5092739;28;20391;-34
2022/06/22 10:35:20;;;;;;;6.25;5.65;;;;;;;27.25;33.28;96683.03;5071163;28;20069;-34
2022/06/22 10:38:02;;;;;;;6.10;5.60;;;;;;;27.26;33.02;96692.88;5098724;28;20502;-34
2022/06/22 10:47:05;;;;;;;9.93;5.70;;;;;;;27.28;32.66;96668.06;5115072;28;20027;-34
2022/06/22 10:49:50;;;;;;;6.03;5.43;;;;;;;27.22;33.10;96673.69;5103524;28;20043;-34
2022/06/22 10:52:33;;;;;;;7.25;5.25;;;;;;;27.28;33.25;96677.16;5114485;28;20069;-34
2022/06/22 10:55:02;;;;;;;7.13;6.20;;;;;;;27.28;32.70;96668.06;5114490;28;20020;-34
2022/06/22 10:57:47;;;;;;;7.63;5.88;;;;;;;27.21;32.52;96661.06;5114299;28;20046;-34
2022/06/22 11:00:42;;;;;;;6.32;5.72;;;;;;;27.28;32.46;96660.44;5114002;28;20134;-35
2022/06/22 11:03:18;;;;;;;6.47;5.85;;;;;;;27.33;32.49;96667.94;5112985;28;20530;-34
2022/06/22 11:06:01;;;;;;;6.45;5.70;;;;;;;27.33;32.53;96659.59;5114390;28;20080;-34
2022/06/22 11:08:51;;;;;;;6.43;5.45;;;;;;;27.35;32.67;96661.84;5113287;28;20027;-34
2022/06/22 11:11:59;;;;;;;7.20;5.70;;;;;;;27.33;32.54;96651.22;5114326;28;20019;-35
2022/06/22 11:14:43;;;;;;;7.50;5.45;;;;;;;27.39;32.83;96657.47;5108499;28;20050;-34
2022/06/22 11:17:33;;;;;;;8.40;6.25;;;;;;;27.35;32.74;96651.44;5114246;28;20132;-34
2022/06/22 11:20:10;;;;;;;6.18;5.57;;;;;;;27.32;32.76;96635.06;5113947;28;20047;-35
2022/06/22 11:22:46;;;;;;;7.10;5.75;;;;;;;27.32;33.23;96652.53;5113972;28;20103;-34
2022/06/22 11:31:51;;;;;;;7.55;5.38;;;;;;;27.40;32.85;96647.06;5113850;28;20434;-34
2022/06/22 11:34:40;;;;;;;9.60;5.68;;;;;;;27.39;33.34;96640.00;5113144;28;20026;-34
2022/06/22 11:37:21;;;;;;;6.80;5.90;;;;;;;27.33;32.90;96626.16;5112853;28;20059;-34
2022/06/22 11:40:19;;;;;;;6.60;5.65;;;;;;;27.41;33.17;96632.63;5113245;28;20031;-34
2022/06/22 11:42:56;;;;;;;6.80;5.78;;;;;;;27.43;32.92;96627.28;5112672;28;20390;-34
2022/06/22 11:45:56;;;;;;;7.70;6.00;;;;;;;27.43;32.74;96624.47;5113861;28;20031;-34
2022/06/22 11:48:49;;;;;;;6.13;5.53;;;;;;;27.34;33.01;96616.53;5112431;28;20038;-34
2022/06/22 11:51:17;;;;;;;6.00;5.47;;;;;;;27.37;33.11;96615.47;5113712;28;20027;-34
2022/06/22 11:54:20;;;;;;;6.32;5.55;;;;;;;27.42;32.84;96614.63;5113637;28;20031;-34
2022/06/22 11:57:00;;;;;;;6.82;5.63;;;;;;;27.42;32.82;96609.06;5113098;28;20068;-34
2022/06/22 11:59:53;;;;;;;6.43;5.47;;;;;;;27.40;33.25;96635.94;5113801;28;20031;-34
2022/06/22 12:02:37;;;;;;;6.72;5.75;;;;;;;27.28;33.46;96615.16;5113859;28;20030;-34
2022/06/22 12:05:47;;;;;;;6.95;5.78;;;;;;;27.32;33.61;96623.94;5113372;28;20480;-35
2022/06/22 12:08:28;;;;;;;6.57;5.68;;;;;;;27.31;33.98;96634.31;5082849;28;20036;-34
2022/06/22 12:11:21;;;;;;;6.70;6.05;;;;;;;27.40;33.86;96627.59;5112216;28;20012;-34
2022/06/22 12:17:06;;;;;;;9.45;5.82;;;;;;;27.49;33.95;96627.91;5113108;28;20078;-34
2022/06/22 12:19:41;;;;;;;10.65;6.35;;;;;;;27.45;34.19;96621.88;5113437;28;20472;-34
2022/06/22 12:22:14;;;;;;;8.23;5.80;;;;;;;27.46;33.76;96617.06;5113244;28;20034;-35
2022/06/22 12:25:09;;;;;;;7.72;6.13;;;;;;;27.48;33.99;96620.06;5113598;28;20431;-34
2022/06/22 12:27:43;;;;;;;8.68;5.90;;;;;;;27.35;34.47;96620.81;5113318;28;20027;-34
2022/06/22 12:30:24;;;;;;;9.43;6.18;;;;;;;27.39;34.31;96629.63;5113407;28;20047;-34
2022/06/22 12:33:01;;;;;;;7.10;5.97;;;;;;;27.43;34.24;96630.06;5113543;28;20026;-34
2022/06/22 12:35:41;;;;;;;8.02;6.30;;;;;;;27.48;34.06;96640.31;5113198;28;20030;-34
2022/06/22 12:38:16;;;;;;;5.70;5.15;;;;;;;27.44;33.77;96647.50;5113500;28;20027;-34
2022/06/22 12:41:03;;;;;;;9.80;6.30;;;;;;;27.50;33.21;96656.50;5113239;28;20035;-35
2022/06/22 12:43:52;;;;;;;6.35;5.35;;;;;;;27.42;33.15;96645.25;5113186;28;20430;-34
2022/06/22 12:46:57;;;;;;;5.97;5.40;;;;;;;27.53;33.12;96656.19;5114536;28;20050;-34
2022/06/22 12:49:29;;;;;;;9.15;5.88;;;;;;;27.49;32.55;96646.66;5054175;28;20535;-34
2022/06/22 12:52:07;;;;;;;8.88;5.80;;;;;;;27.47;32.67;96636.03;5054315;28;20406;-34
2022/06/22 12:54:41;;;;;;;7.45;5.47;;;;;;;27.52;32.42;96634.44;5053971;28;20090;-34